KGMU/GMU METAR and TAF weather

Enter ICAO airport designator
Station Type Date Time Source
KGMU METAR 2021/09/28 15:53 UTC NOAA

KGMU 281553Z VRB03KT 10SM CLR 27/14 A3006 RMK AO2 SLP169 T02720144


Station Type Date Time Source
KGMU Decoded METAR 2021/09/28 15:53 UTC NOAA

GREENVILLE DOWNTOWN AIRPORT , SC, United States (KGMU) 34-51N 82-21W 315M
Sep 28, 2021 - 11:53 AM EDT / 2021.09.28 1553 UTC
Wind: Variable at 3 MPH (3 KT):0
Visibility: 10 mile(s):0
Sky conditions: clear
Temperature: 81.0 F (27.2 C)
Dew Point: 57.9 F (14.4 C)
Relative Humidity: 45%
Pressure (altimeter): 30.06 in. Hg (1017 hPa)
ob: KGMU 281553Z VRB03KT 10SM CLR 27/14 A3006 RMK AO2 SLP169 T02720144
cycle: 16

Station Type Date Time Source
KGMU TAF 2021/09/28 12:40 UTC NOAA

TAF KGMU 281138Z 2812/2912 26004KT P6SM FEW250
FM281500 24006KT P6SM SCT250
FM290000 25004KT P6SM FEW250
FM290800 34003KT P6SM SCT250

Example: see airport list